sensor_id;sensor_type;location;lat;lon;timestamp;pressure;altitude;pressure_sealevel;temperature;humidity
49979;BME280;35869;50.990;6.962;2024-01-07T00:01:08;101227.16;;;3.22;100.00
49979;BME280;35869;50.990;6.962;2024-01-07T00:06:10;101227.19;;;3.17;100.00
49979;BME280;35869;50.990;6.962;2024-01-07T00:11:10;101224.59;;;3.22;100.00
49979;BME280;35869;50.990;6.962;2024-01-07T00:16:12;101236.63;;;3.14;100.00
49979;BME280;35869;50.990;6.962;2024-01-07T00:21:12;101238.31;;;3.16;100.00
49979;BME280;35869;50.990;6.962;2024-01-07T00:26:15;101234.88;;;3.19;100.00
49979;BME280;35869;50.990;6.962;2024-01-07T00:31:15;101246.00;;;3.21;100.00
49979;BME280;35869;50.990;6.962;2024-01-07T00:36:16;101241.75;;;3.15;100.00
49979;BME280;35869;50.990;6.962;2024-01-07T00:41:16;101243.44;;;3.16;100.00
49979;BME280;35869;50.990;6.962;2024-01-07T00:46:16;101245.19;;;3.17;100.00
49979;BME280;35869;50.990;6.962;2024-01-07T00:51:21;101252.03;;;3.18;100.00
49979;BME280;35869;50.990;6.962;2024-01-07T00:56:25;101248.59;;;3.16;100.00
49979;BME280;35869;50.990;6.962;2024-01-07T01:01:25;101257.22;;;3.11;100.00
49979;BME280;35869;50.990;6.962;2024-01-07T01:06:26;101261.44;;;3.19;100.00
49979;BME280;35869;50.990;6.962;2024-01-07T01:11:26;101264.00;;;3.23;100.00
49979;BME280;35869;50.990;6.962;2024-01-07T01:16:26;101263.16;;;3.14;100.00
49979;BME280;35869;50.990;6.962;2024-01-07T01:21:26;101280.28;;;3.17;100.00
49979;BME280;35869;50.990;6.962;2024-01-07T01:26:26;101272.59;;;3.12;100.00
49979;BME280;35869;50.990;6.962;2024-01-07T01:31:27;101278.59;;;3.10;100.00
49979;BME280;35869;50.990;6.962;2024-01-07T01:36:27;101281.13;;;3.16;100.00
49979;BME280;35869;50.990;6.962;2024-01-07T01:41:28;101282.00;;;3.13;100.00
49979;BME280;35869;50.990;6.962;2024-01-07T01:46:29;101281.09;;;3.25;100.00
49979;BME280;35869;50.990;6.962;2024-01-07T01:51:29;101282.00;;;3.10;100.00
49979;BME280;35869;50.990;6.962;2024-01-07T01:56:30;101283.72;;;3.13;100.00
49979;BME280;35869;50.990;6.962;2024-01-07T02:01:31;101290.56;;;3.12;100.00
49979;BME280;35869;50.990;6.962;2024-01-07T02:06:31;101293.97;;;3.14;100.00
49979;BME280;35869;50.990;6.962;2024-01-07T02:11:32;101291.44;;;3.08;100.00
49979;BME280;35869;50.990;6.962;2024-01-07T02:16:32;101303.38;;;3.15;100.00
49979;BME280;35869;50.990;6.962;2024-01-07T02:21:33;101312.84;;;3.12;100.00
49979;BME280;35869;50.990;6.962;2024-01-07T02:26:33;101317.97;;;3.12;100.00
49979;BME280;35869;50.990;6.962;2024-01-07T02:31:33;101323.09;;;3.15;100.00
49979;BME280;35869;50.990;6.962;2024-01-07T02:36:33;101329.09;;;3.12;100.00
49979;BME280;35869;50.990;6.962;2024-01-07T02:41:33;101330.78;;;3.16;100.00
49979;BME280;35869;50.990;6.962;2024-01-07T02:46:34;101329.09;;;3.12;100.00
49979;BME280;35869;50.990;6.962;2024-01-07T02:51:34;101323.97;;;3.11;100.00
49979;BME280;35869;50.990;6.962;2024-01-07T02:56:34;101335.97;;;3.07;100.00
49979;BME280;35869;50.990;6.962;2024-01-07T03:01:34;101335.97;;;3.07;100.00
49979;BME280;35869;50.990;6.962;2024-01-07T03:06:34;101337.69;;;3.05;100.00
49979;BME280;35869;50.990;6.962;2024-01-07T03:11:39;101336.00;;;3.01;100.00
49979;BME280;35869;50.990;6.962;2024-01-07T03:16:39;101349.66;;;3.12;100.00
49979;BME280;35869;50.990;6.962;2024-01-07T03:21:39;101346.19;;;3.15;100.00
49979;BME280;35869;50.990;6.962;2024-01-07T03:26:39;101352.22;;;3.08;100.00
49979;BME280;35869;50.990;6.962;2024-01-07T03:31:40;101352.25;;;3.00;100.00
49979;BME280;35869;50.990;6.962;2024-01-07T03:36:40;101355.66;;;3.11;100.00
49979;BME280;35869;50.990;6.962;2024-01-07T03:41:40;101359.09;;;3.06;100.00
49979;BME280;35869;50.990;6.962;2024-01-07T03:46:40;101359.06;;;3.12;100.00
49979;BME280;35869;50.990;6.962;2024-01-07T03:51:40;101363.41;;;2.87;100.00
49979;BME280;35869;50.990;6.962;2024-01-07T03:56:41;101365.94;;;2.96;100.00
49979;BME280;35869;50.990;6.962;2024-01-07T04:01:41;101357.38;;;3.03;100.00
49979;BME280;35869;50.990;6.962;2024-01-07T04:06:41;101365.09;;;2.96;100.00
49979;BME280;35869;50.990;6.962;2024-01-07T04:11:42;101370.25;;;2.88;100.00
49979;BME280;35869;50.990;6.962;2024-01-07T04:16:43;101379.69;;;2.78;100.00
49979;BME280;35869;50.990;6.962;2024-01-07T04:21:46;101377.09;;;2.92;100.00
49979;BME280;35869;50.990;6.962;2024-01-07T04:26:46;101389.06;;;2.87;100.00
49979;BME280;35869;50.990;6.962;2024-01-07T04:31:46;101394.22;;;2.84;100.00
49979;BME280;35869;50.990;6.962;2024-01-07T04:36:47;101394.19;;;2.87;100.00
49979;BME280;35869;50.990;6.962;2024-01-07T04:41:47;101400.22;;;2.78;100.00
49979;BME280;35869;50.990;6.962;2024-01-07T04:46:48;101401.94;;;2.79;100.00
49979;BME280;35869;50.990;6.962;2024-01-07T04:51:48;101405.34;;;2.89;100.00
49979;BME280;35869;50.990;6.962;2024-01-07T04:56:48;101414.75;;;2.90;100.00
49979;BME280;35869;50.990;6.962;2024-01-07T05:01:48;101413.06;;;2.83;100.00
49979;BME280;35869;50.990;6.962;2024-01-07T05:06:49;101416.47;;;2.82;100.00
49979;BME280;35869;50.990;6.962;2024-01-07T05:11:49;101421.59;;;2.70;100.00
49979;BME280;35869;50.990;6.962;2024-01-07T05:16:49;101429.31;;;2.79;100.00
49979;BME280;35869;50.990;6.962;2024-01-07T05:21:49;101436.16;;;2.69;100.00
49979;BME280;35869;50.990;6.962;2024-01-07T05:26:50;101443.88;;;2.77;100.00
49979;BME280;35869;50.990;6.962;2024-01-07T05:31:50;101442.13;;;2.74;100.00
49979;BME280;35869;50.990;6.962;2024-01-07T05:36:51;101455.84;;;2.64;100.00
49979;BME280;35869;50.990;6.962;2024-01-07T05:41:51;101453.28;;;2.65;100.00
49979;BME280;35869;50.990;6.962;2024-01-07T05:46:51;101469.53;;;2.58;100.00
49979;BME280;35869;50.990;6.962;2024-01-07T05:51:51;101471.25;;;2.72;100.00
49979;BME280;35869;50.990;6.962;2024-01-07T05:56:52;101466.97;;;2.71;100.00
49979;BME280;35869;50.990;6.962;2024-01-07T06:01:57;101478.06;;;2.54;100.00
49979;BME280;35869;50.990;6.962;2024-01-07T06:06:58;101477.22;;;2.51;100.00
49979;BME280;35869;50.990;6.962;2024-01-07T06:11:58;101485.78;;;2.60;100.00
49979;BME280;35869;50.990;6.962;2024-01-07T06:16:58;101493.47;;;2.63;100.00
49979;BME280;35869;50.990;6.962;2024-01-07T06:21:59;101497.75;;;2.61;100.00
49979;BME280;35869;50.990;6.962;2024-01-07T06:26:59;101504.56;;;2.50;100.00
49979;BME280;35869;50.990;6.962;2024-01-07T06:31:59;101518.25;;;2.51;100.00
49979;BME280;35869;50.990;6.962;2024-01-07T06:36:59;101525.97;;;2.49;100.00
49979;BME280;35869;50.990;6.962;2024-01-07T06:42:00;101533.66;;;2.57;100.00
49979;BME280;35869;50.990;6.962;2024-01-07T06:47:00;101547.34;;;2.40;100.00
49979;BME280;35869;50.990;6.962;2024-01-07T06:52:00;101553.34;;;2.59;100.00
49979;BME280;35869;50.990;6.962;2024-01-07T06:57:00;101561.81;;;2.25;100.00
49979;BME280;35869;50.990;6.962;2024-01-07T07:02:01;101571.22;;;2.33;100.00
49979;BME280;35869;50.990;6.962;2024-01-07T07:07:01;101573.78;;;2.26;100.00
49979;BME280;35869;50.990;6.962;2024-01-07T07:12:02;101571.16;;;2.06;100.00
49979;BME280;35869;50.990;6.962;2024-01-07T07:17:02;101575.41;;;2.02;100.00
49979;BME280;35869;50.990;6.962;2024-01-07T07:22:03;101589.19;;;2.29;100.00
49979;BME280;35869;50.990;6.962;2024-01-07T07:27:04;101591.75;;;2.30;100.00
49979;BME280;35869;50.990;6.962;2024-01-07T07:32:05;101601.19;;;2.39;100.00
49979;BME280;35869;50.990;6.962;2024-01-07T07:37:05;101608.94;;;2.53;100.00
49979;BME280;35869;50.990;6.962;2024-01-07T07:42:05;101609.66;;;2.23;100.00
49979;BME280;35869;50.990;6.962;2024-01-07T07:47:05;101623.41;;;2.34;100.00
49979;BME280;35869;50.990;6.962;2024-01-07T07:52:08;101622.53;;;2.24;100.00
49979;BME280;35869;50.990;6.962;2024-01-07T07:57:08;101635.44;;;2.47;100.00
49979;BME280;35869;50.990;6.962;2024-01-07T08:02:09;101637.97;;;2.35;100.00
49979;BME280;35869;50.990;6.962;2024-01-07T08:07:09;101647.31;;;2.24;100.00
49979;BME280;35869;50.990;6.962;2024-01-07T08:12:11;101655.84;;;2.18;100.00
49979;BME280;35869;50.990;6.962;2024-01-07T08:17:31;101670.44;;;2.39;100.00
49979;BME280;35869;50.990;6.962;2024-01-07T08:22:31;101670.38;;;2.18;100.00
49979;BME280;35869;50.990;6.962;2024-01-07T08:27:31;101673.00;;;2.30;100.00
49979;BME280;35869;50.990;6.962;2024-01-07T08:32:32;101678.94;;;2.26;100.00
49979;BME280;35869;50.990;6.962;2024-01-07T08:37:32;101696.94;;;2.29;100.00
49979;BME280;35869;50.990;6.962;2024-01-07T08:42:32;101707.16;;;2.26;100.00
49979;BME280;35869;50.990;6.962;2024-01-07T08:47:32;101720.75;;;2.16;100.00
49979;BME280;35869;50.990;6.962;2024-01-07T08:52:33;101729.31;;;2.14;100.00
49979;BME280;35869;50.990;6.962;2024-01-07T08:57:33;101734.47;;;2.18;100.00
49979;BME280;35869;50.990;6.962;2024-01-07T09:02:33;101733.66;;;2.23;100.00
49979;BME280;35869;50.990;6.962;2024-01-07T09:07:33;101740.44;;;2.17;100.00
49979;BME280;35869;50.990;6.962;2024-01-07T09:12:34;101736.88;;;1.99;100.00
49979;BME280;35869;50.990;6.962;2024-01-07T09:17:35;101753.94;;;1.91;100.00
49979;BME280;35869;50.990;6.962;2024-01-07T09:22:36;101746.19;;;1.86;100.00
49979;BME280;35869;50.990;6.962;2024-01-07T09:27:36;101760.91;;;2.06;100.00
49979;BME280;35869;50.990;6.962;2024-01-07T09:32:36;101756.50;;;1.91;100.00
49979;BME280;35869;50.990;6.962;2024-01-07T09:37:37;101771.88;;;1.93;100.00
49979;BME280;35869;50.990;6.962;2024-01-07T09:42:37;101773.56;;;1.89;100.00
49979;BME280;35869;50.990;6.962;2024-01-07T09:47:37;101776.78;;;1.67;100.00
49979;BME280;35869;50.990;6.962;2024-01-07T09:52:38;101784.66;;;1.86;100.00
49979;BME280;35869;50.990;6.962;2024-01-07T09:57:44;101779.66;;;2.00;100.00
49979;BME280;35869;50.990;6.962;2024-01-07T10:02:44;101784.78;;;2.03;100.00
49979;BME280;35869;50.990;6.962;2024-01-07T10:07:44;101791.63;;;2.03;100.00
49979;BME280;35869;50.990;6.962;2024-01-07T10:12:44;101794.16;;;1.98;100.00
49979;BME280;35869;50.990;6.962;2024-01-07T10:17:45;101800.88;;;1.84;100.00
49979;BME280;35869;50.990;6.962;2024-01-07T10:22:51;101805.00;;;1.70;100.00
49979;BME280;35869;50.990;6.962;2024-01-07T10:27:51;101809.31;;;1.71;100.00
49979;BME280;35869;50.990;6.962;2024-01-07T10:32:59;101814.50;;;1.80;100.00
49979;BME280;35869;50.990;6.962;2024-01-07T10:38:00;101825.44;;;1.62;100.00
49979;BME280;35869;50.990;6.962;2024-01-07T10:43:01;101822.06;;;1.69;100.00
49979;BME280;35869;50.990;6.962;2024-01-07T10:48:04;101822.72;;;1.48;100.00
49979;BME280;35869;50.990;6.962;2024-01-07T10:53:08;101826.28;;;1.63;100.00
49979;BME280;35869;50.990;6.962;2024-01-07T10:58:11;101834.81;;;1.62;100.00
49979;BME280;35869;50.990;6.962;2024-01-07T11:03:20;101828.84;;;1.64;100.00
49979;BME280;35869;50.990;6.962;2024-01-07T11:08:34;101835.00;;;1.80;100.00
49979;BME280;35869;50.990;6.962;2024-01-07T11:13:36;101833.19;;;1.70;100.00
49979;BME280;35869;50.990;6.962;2024-01-07T11:18:47;101839.16;;;1.67;100.00
49979;BME280;35869;50.990;6.962;2024-01-07T11:23:49;101833.22;;;1.73;100.00
49979;BME280;35869;50.990;6.962;2024-01-07T11:28:50;101845.06;;;1.63;100.00
49979;BME280;35869;50.990;6.962;2024-01-07T11:33:51;101844.00;;;1.43;100.00
49979;BME280;35869;50.990;6.962;2024-01-07T11:38:53;101846.78;;;1.63;100.00
49979;BME280;35869;50.990;6.962;2024-01-07T11:48:55;101849.34;;;1.63;100.00
49979;BME280;35869;50.990;6.962;2024-01-07T11:53:55;101852.56;;;1.43;100.00
49979;BME280;35869;50.990;6.962;2024-01-07T11:58:55;101854.91;;;1.25;100.00
49979;BME280;35869;50.990;6.962;2024-01-07T12:03:56;101860.97;;;1.34;100.00
49979;BME280;35869;50.990;6.962;2024-01-07T12:08:56;101864.53;;;1.46;100.00
49979;BME280;35869;50.990;6.962;2024-01-07T12:13:56;101866.06;;;1.30;100.00
49979;BME280;35869;50.990;6.962;2024-01-07T12:18:57;101868.66;;;1.33;100.00
49979;BME280;35869;50.990;6.962;2024-01-07T12:23:58;101863.38;;;1.21;100.00
49979;BME280;35869;50.990;6.962;2024-01-07T12:29:00;101871.84;;;1.14;100.00
49979;BME280;35869;50.990;6.962;2024-01-07T12:34:02;101879.34;;;1.01;100.00
49979;BME280;35869;50.990;6.962;2024-01-07T12:39:02;101889.13;;;1.30;100.00
49979;BME280;35869;50.990;6.962;2024-01-07T12:44:03;101883.22;;;1.37;100.00
49979;BME280;35869;50.990;6.962;2024-01-07T12:49:03;101894.25;;;1.31;100.00
49979;BME280;35869;50.990;6.962;2024-01-07T12:54:03;101901.63;;;1.10;100.00
49979;BME280;35869;50.990;6.962;2024-01-07T12:59:03;101905.13;;;1.17;100.00
49979;BME280;35869;50.990;6.962;2024-01-07T13:04:04;101916.44;;;1.29;100.00
49979;BME280;35869;50.990;6.962;2024-01-07T13:09:04;101924.06;;;1.26;100.00
49979;BME280;35869;50.990;6.962;2024-01-07T13:14:05;101930.19;;;1.39;100.00
49979;BME280;35869;50.990;6.962;2024-01-07T13:19:05;101935.94;;;1.20;100.00
49979;BME280;35869;50.990;6.962;2024-01-07T13:24:05;101936.63;;;1.10;100.00
49979;BME280;35869;50.990;6.962;2024-01-07T13:29:05;101942.13;;;1.37;100.00
49979;BME280;35869;50.990;6.962;2024-01-07T13:34:06;101940.41;;;1.36;100.00
49979;BME280;35869;50.990;6.962;2024-01-07T13:39:06;101954.16;;;0.84;100.00
49979;BME280;35869;50.990;6.962;2024-01-07T13:44:06;101950.06;;;0.95;100.00
49979;BME280;35869;50.990;6.962;2024-01-07T13:49:06;101960.91;;;0.78;100.00
49979;BME280;35869;50.990;6.962;2024-01-07T13:54:07;101967.81;;;0.83;100.00
49979;BME280;35869;50.990;6.962;2024-01-07T13:59:07;101971.69;;;0.59;100.00
49979;BME280;35869;50.990;6.962;2024-01-07T14:04:07;101981.38;;;0.78;100.00
49979;BME280;35869;50.990;6.962;2024-01-07T14:09:07;101994.19;;;0.78;100.00
49979;BME280;35869;50.990;6.962;2024-01-07T14:14:08;101998.25;;;0.66;100.00
49979;BME280;35869;50.990;6.962;2024-01-07T14:19:08;102009.41;;;0.71;100.00
49979;BME280;35869;50.990;6.962;2024-01-07T14:24:08;102017.97;;;0.73;100.00
49979;BME280;35869;50.990;6.962;2024-01-07T14:29:08;102033.31;;;0.73;100.00
49979;BME280;35869;50.990;6.962;2024-01-07T14:34:08;102039.69;;;0.96;100.00
49979;BME280;35869;50.990;6.962;2024-01-07T14:39:09;102051.78;;;0.57;100.00
49979;BME280;35869;50.990;6.962;2024-01-07T14:44:09;102055.47;;;0.71;100.00
49979;BME280;35869;50.990;6.962;2024-01-07T14:49:09;102056.44;;;0.79;100.00
49979;BME280;35869;50.990;6.962;2024-01-07T14:54:10;102058.78;;;0.65;100.00
49979;BME280;35869;50.990;6.962;2024-01-07T14:59:10;102068.97;;;0.64;100.00
49979;BME280;35869;50.990;6.962;2024-01-07T15:04:10;102087.47;;;0.50;100.00
49979;BME280;35869;50.990;6.962;2024-01-07T15:09:10;102092.44;;;0.41;100.00
49979;BME280;35869;50.990;6.962;2024-01-07T15:14:11;102094.50;;;0.61;100.00
49979;BME280;35869;50.990;6.962;2024-01-07T15:19:11;102111.56;;;0.60;100.00
49979;BME280;35869;50.990;6.962;2024-01-07T15:24:11;102116.34;;;0.43;100.00
49979;BME280;35869;50.990;6.962;2024-01-07T15:29:12;102117.22;;;0.45;100.00
49979;BME280;35869;50.990;6.962;2024-01-07T15:34:12;102125.63;;;0.38;100.00
49979;BME280;35869;50.990;6.962;2024-01-07T15:39:12;102135.25;;;0.09;100.00
49979;BME280;35869;50.990;6.962;2024-01-07T15:44:12;102138.72;;;0.13;100.00
49979;BME280;35869;50.990;6.962;2024-01-07T15:49:12;102161.28;;;0.31;100.00
49979;BME280;35869;50.990;6.962;2024-01-07T15:54:13;102163.06;;;-0.05;100.00
49979;BME280;35869;50.990;6.962;2024-01-07T15:59:13;102162.47;;;0.07;100.00
49979;BME280;35869;50.990;6.962;2024-01-07T16:04:13;102172.63;;;0.06;100.00
49979;BME280;35869;50.990;6.962;2024-01-07T16:09:13;102181.72;;;0.31;100.00
49979;BME280;35869;50.990;6.962;2024-01-07T16:14:14;102181.59;;;0.24;100.00
49979;BME280;35869;50.990;6.962;2024-01-07T16:19:14;102191.75;;;0.21;100.00
49979;BME280;35869;50.990;6.962;2024-01-07T16:24:14;102200.63;;;0.39;100.00
49979;BME280;35869;50.990;6.962;2024-01-07T16:29:14;102207.22;;;0.28;100.00
49979;BME280;35869;50.990;6.962;2024-01-07T16:34:14;102203.16;;;-0.01;100.00
49979;BME280;35869;50.990;6.962;2024-01-07T16:39:15;102194.38;;;-0.13;100.00
49979;BME280;35869;50.990;6.962;2024-01-07T16:44:15;102215.66;;;-0.13;100.00
49979;BME280;35869;50.990;6.962;2024-01-07T16:49:15;102216.16;;;0.09;100.00
49979;BME280;35869;50.990;6.962;2024-01-07T16:54:15;102216.03;;;0.03;100.00
49979;BME280;35869;50.990;6.962;2024-01-07T16:59:15;102228.41;;;-0.14;100.00
49979;BME280;35869;50.990;6.962;2024-01-07T17:04:16;102234.31;;;0.19;100.00
49979;BME280;35869;50.990;6.962;2024-01-07T17:09:16;102243.59;;;0.16;100.00
49979;BME280;35869;50.990;6.962;2024-01-07T17:14:16;102255.13;;;-0.02;100.00
49979;BME280;35869;50.990;6.962;2024-01-07T17:19:17;102258.44;;;-0.06;100.00
49979;BME280;35869;50.990;6.962;2024-01-07T17:24:17;102258.16;;;0.18;100.00
49979;BME280;35869;50.990;6.962;2024-01-07T17:29:17;102278.56;;;0.17;100.00
49979;BME280;35869;50.990;6.962;2024-01-07T17:34:18;102265.72;;;0.14;100.00
49979;BME280;35869;50.990;6.962;2024-01-07T17:39:18;102274.50;;;0.25;100.00
49979;BME280;35869;50.990;6.962;2024-01-07T17:44:18;102272.63;;;0.18;100.00
49979;BME280;35869;50.990;6.962;2024-01-07T17:49:18;102281.09;;;0.15;100.00
49979;BME280;35869;50.990;6.962;2024-01-07T17:54:18;102280.22;;;0.15;100.00
49979;BME280;35869;50.990;6.962;2024-01-07T17:59:19;102284.59;;;0.19;100.00
49979;BME280;35869;50.990;6.962;2024-01-07T18:04:20;102285.44;;;0.19;100.00
49979;BME280;35869;50.990;6.962;2024-01-07T18:09:20;102292.72;;;0.03;100.00
49979;BME280;35869;50.990;6.962;2024-01-07T18:14:20;102292.72;;;0.03;100.00
49979;BME280;35869;50.990;6.962;2024-01-07T18:19:21;102298.03;;;0.12;100.00
49979;BME280;35869;50.990;6.962;2024-01-07T18:24:22;102296.78;;;-0.06;100.00
49979;BME280;35869;50.990;6.962;2024-01-07T18:29:23;102295.28;;;0.03;100.00
49979;BME280;35869;50.990;6.962;2024-01-07T18:34:23;102302.94;;;0.03;100.00
49979;BME280;35869;50.990;6.962;2024-01-07T18:39:24;102309.91;;;0.10;100.00
49979;BME280;35869;50.990;6.962;2024-01-07T18:44:24;102313.06;;;-0.01;100.00
49979;BME280;35869;50.990;6.962;2024-01-07T18:49:24;102326.78;;;0.02;100.00
49979;BME280;35869;50.990;6.962;2024-01-07T18:54:25;102325.38;;;0.14;100.00
49979;BME280;35869;50.990;6.962;2024-01-07T18:59:25;102321.72;;;0.05;100.00
49979;BME280;35869;50.990;6.962;2024-01-07T19:04:25;102329.63;;;0.14;100.00
49979;BME280;35869;50.990;6.962;2024-01-07T19:09:25;102335.34;;;0.04;100.00
49979;BME280;35869;50.990;6.962;2024-01-07T19:14:26;102338.88;;;0.09;100.00
49979;BME280;35869;50.990;6.962;2024-01-07T19:19:26;102341.34;;;0.06;100.00
49979;BME280;35869;50.990;6.962;2024-01-07T19:24:26;102354.84;;;0.00;100.00
49979;BME280;35869;50.990;6.962;2024-01-07T19:29:26;102347.81;;;-0.09;100.00
49979;BME280;35869;50.990;6.962;2024-01-07T19:34:26;102354.22;;;0.09;100.00
49979;BME280;35869;50.990;6.962;2024-01-07T19:39:27;102355.66;;;-0.01;100.00
49979;BME280;35869;50.990;6.962;2024-01-07T19:44:28;102353.19;;;0.02;100.00
49979;BME280;35869;50.990;6.962;2024-01-07T19:49:28;102361.72;;;0.03;100.00
49979;BME280;35869;50.990;6.962;2024-01-07T19:54:28;102369.66;;;0.13;100.00
49979;BME280;35869;50.990;6.962;2024-01-07T19:59:28;102370.00;;;-0.06;100.00
49979;BME280;35869;50.990;6.962;2024-01-07T20:04:29;102370.06;;;-0.05;100.00
49979;BME280;35869;50.990;6.962;2024-01-07T20:09:29;102372.06;;;0.07;100.00
49979;BME280;35869;50.990;6.962;2024-01-07T20:14:29;102376.81;;;-0.07;100.00
49979;BME280;35869;50.990;6.962;2024-01-07T20:19:29;102368.34;;;-0.06;100.00
49979;BME280;35869;50.990;6.962;2024-01-07T20:24:30;102377.78;;;-0.03;100.00
49979;BME280;35869;50.990;6.962;2024-01-07T20:29:30;102377.47;;;-0.14;100.00
49979;BME280;35869;50.990;6.962;2024-01-07T20:34:30;102378.97;;;-0.22;100.00
49979;BME280;35869;50.990;6.962;2024-01-07T20:39:30;102381.56;;;-0.20;100.00
49979;BME280;35869;50.990;6.962;2024-01-07T20:44:30;102379.69;;;-0.28;100.00
49979;BME280;35869;50.990;6.962;2024-01-07T20:49:31;102387.19;;;-0.34;100.00
49979;BME280;35869;50.990;6.962;2024-01-07T20:54:31;102388.06;;;-0.32;100.00
49979;BME280;35869;50.990;6.962;2024-01-07T20:59:31;102394.03;;;-0.33;100.00
49979;BME280;35869;50.990;6.962;2024-01-07T21:04:31;102399.19;;;-0.30;100.00
49979;BME280;35869;50.990;6.962;2024-01-07T21:09:32;102404.91;;;-0.40;100.00
49979;BME280;35869;50.990;6.962;2024-01-07T21:14:32;102402.97;;;-0.17;100.00
49979;BME280;35869;50.990;6.962;2024-01-07T21:19:32;102406.97;;;-0.27;100.00
49979;BME280;35869;50.990;6.962;2024-01-07T21:24:32;102410.00;;;-0.40;100.00
49979;BME280;35869;50.990;6.962;2024-01-07T21:29:32;102418.50;;;-0.41;100.00
49979;BME280;35869;50.990;6.962;2024-01-07T21:34:33;102414.09;;;-0.46;100.00
49979;BME280;35869;50.990;6.962;2024-01-07T21:39:33;102418.91;;;-0.56;100.00
49979;BME280;35869;50.990;6.962;2024-01-07T21:44:34;102424.13;;;-0.52;100.00
49979;BME280;35869;50.990;6.962;2024-01-07T21:49:34;102418.41;;;-0.44;100.00
49979;BME280;35869;50.990;6.962;2024-01-07T21:54:34;102425.03;;;-0.50;100.00
49979;BME280;35869;50.990;6.962;2024-01-07T21:59:35;102418.41;;;-0.44;100.00
49979;BME280;35869;50.990;6.962;2024-01-07T22:04:36;102423.50;;;-0.44;100.00
49979;BME280;35869;50.990;6.962;2024-01-07T22:09:36;102423.84;;;-0.62;100.00
49979;BME280;35869;50.990;6.962;2024-01-07T22:14:37;102427.81;;;-0.41;100.00
49979;BME280;35869;50.990;6.962;2024-01-07T22:19:37;102434.59;;;-0.43;100.00
49979;BME280;35869;50.990;6.962;2024-01-07T22:24:37;102432.84;;;-0.74;100.00
49979;BME280;35869;50.990;6.962;2024-01-07T22:29:37;102438.00;;;-1.00;100.00
49979;BME280;35869;50.990;6.962;2024-01-07T22:34:37;102442.63;;;-0.88;100.00
49979;BME280;35869;50.990;6.962;2024-01-07T22:39:38;102440.00;;;-0.91;100.00
49979;BME280;35869;50.990;6.962;2024-01-07T22:44:38;102444.56;;;-0.81;100.00
49979;BME280;35869;50.990;6.962;2024-01-07T22:49:38;102443.38;;;-0.64;100.00
49979;BME280;35869;50.990;6.962;2024-01-07T22:54:38;102455.13;;;-0.97;100.00
49979;BME280;35869;50.990;6.962;2024-01-07T22:59:38;102459.38;;;-0.69;100.00
49979;BME280;35869;50.990;6.962;2024-01-07T23:04:39;102456.31;;;-0.58;100.00
49979;BME280;35869;50.990;6.962;2024-01-07T23:09:39;102465.00;;;-0.52;100.00
49979;BME280;35869;50.990;6.962;2024-01-07T23:14:39;102467.75;;;-0.73;100.00
49979;BME280;35869;50.990;6.962;2024-01-07T23:19:39;102468.13;;;-0.61;100.00
49979;BME280;35869;50.990;6.962;2024-01-07T23:24:40;102464.41;;;-0.71;100.00
49979;BME280;35869;50.990;6.962;2024-01-07T23:29:40;102470.44;;;-0.69;100.00
49979;BME280;35869;50.990;6.962;2024-01-07T23:34:40;102470.59;;;-0.64;100.00
49979;BME280;35869;50.990;6.962;2024-01-07T23:39:40;102465.69;;;-0.85;100.00
49979;BME280;35869;50.990;6.962;2024-01-07T23:44:41;102472.06;;;-0.71;100.00
49979;BME280;35869;50.990;6.962;2024-01-07T23:49:41;102465.59;;;-0.88;100.00
49979;BME280;35869;50.990;6.962;2024-01-07T23:54:41;102470.63;;;-0.91;100.00
49979;BME280;35869;50.990;6.962;2024-01-07T23:59:41;102470.16;;;-0.78;100.00
